KCGZ/CGZ METAR and TAF weather

Enter ICAO airport designator
Station Type Date Time Source
KCGZ METAR 2022/12/08 10:56 UTC NOAA

KCGZ 081056Z AUTO 00000KT 10SM CLR 06/04 A3024 RMK AO2 SLP242 T00610044 $


Station Type Date Time Source
KCGZ Decoded METAR 2022/12/08 10:56 UTC NOAA

Casa Grande, Casa Grande Municipal Airport, AZ, United States (KCGZ) 32-57N 111-46W
Dec 08, 2022 - 05:56 AM EST / 2022.12.08 1056 UTC
Wind: Calm:0
Visibility: 10 mile(s):0
Sky conditions: clear
Temperature: 43.0 F (6.1 C)
Dew Point: 39.9 F (4.4 C)
Relative Humidity: 88%
Pressure (altimeter): 30.24 in. Hg (1024 hPa)
ob: KCGZ 081056Z AUTO 00000KT 10SM CLR 06/04 A3024 RMK AO2 SLP242 T00610044
cycle: 11

Station Type Date Time Source
KCGZ TAF UTC NOAA

Error!

Example: see airport list